Time;durP1;ratioP1;P1;durP2;ratioP2;P2;SDS_P1;SDS_P2;PMS_P1;PMS_P2;Temp;Humidity;BMP_temperature;BMP_pressure;BME280_temperature;BME280_humidity;BME280_pressure;Samples;Min_cycle;Max_cycle;Signal;HPM_P1;HPM_P2
2022/07/23 00:02:16;;;;;;;13.95;9.40;;;;;;;-145.69;100.00;70877.09;5072666;28;20584;-80
2022/07/23 00:04:44;;;;;;;14.48;9.63;;;;;;;-145.69;100.00;70861.19;5072467;28;20198;-80
2022/07/23 00:07:18;;;;;;;14.90;9.27;;;;;;;-145.69;100.00;70865.16;5072815;28;20225;-81
2022/07/23 00:09:48;;;;;;;15.32;9.60;;;;;;;-145.69;100.00;70865.16;5072594;28;20297;-80
2022/07/23 00:12:18;;;;;;;17.27;10.13;;;;;;;-145.69;100.00;70863.19;5072582;28;20205;-80
2022/07/23 00:14:45;;;;;;;14.25;9.55;;;;;;;-145.69;100.00;70869.16;5071948;28;20199;-80
2022/07/23 00:17:11;;;;;;;13.30;9.48;;;;;;;-145.69;100.00;70875.13;5072367;28;20202;-80
2022/07/23 00:19:42;;;;;;;17.50;9.70;;;;;;;-145.69;100.00;70873.13;5072552;28;20285;-79
2022/07/23 00:22:08;;;;;;;14.18;9.30;;;;;;;-145.69;100.00;70873.13;5072488;28;20276;-80
2022/07/23 00:24:36;;;;;;;14.75;9.93;;;;;;;-145.69;100.00;70877.09;5072444;28;20330;-81
2022/07/23 00:27:03;;;;;;;12.02;8.93;;;;;;;-145.69;100.00;70885.06;5072374;28;20199;-80
2022/07/23 00:29:31;;;;;;;14.40;9.15;;;;;;;-145.69;100.00;70871.13;5062645;28;20211;-80
2022/07/23 00:31:58;;;;;;;12.85;8.90;;;;;;;-145.69;100.00;70865.16;5064488;28;20195;-80
2022/07/23 00:34:29;;;;;;;13.95;9.43;;;;;;;-145.69;100.00;70873.13;5072233;28;20293;-80
2022/07/23 00:36:56;;;;;;;14.52;9.07;;;;;;;-145.69;100.00;70865.16;5072037;28;20700;-81
2022/07/23 00:39:22;;;;;;;14.93;8.95;;;;;;;-145.69;100.00;70863.19;5072241;28;20203;-82
2022/07/23 00:41:51;;;;;;;14.00;8.68;;;;;;;-145.69;100.00;70857.22;5071798;28;20198;-80
2022/07/23 00:44:20;;;;;;;15.13;9.10;;;;;;;-145.69;100.00;70847.25;5072073;28;20210;-80
2022/07/23 00:46:52;;;;;;;11.45;9.00;;;;;;;-145.69;100.00;70861.19;5072343;28;20199;-80
2022/07/23 00:49:19;;;;;;;13.30;8.38;;;;;;;-145.69;100.00;70861.19;5072087;28;20600;-80
2022/07/23 00:51:46;;;;;;;13.68;9.50;;;;;;;-145.69;100.00;70875.13;5072068;28;20636;-81
2022/07/23 00:54:14;;;;;;;12.57;7.80;;;;;;;-145.69;100.00;70869.16;5072002;28;20202;-83
2022/07/23 00:56:43;;;;;;;10.88;7.75;;;;;;;-145.69;100.00;70867.16;5074372;28;20321;-86
2022/07/23 00:59:10;;;;;;;10.50;7.28;;;;;;;-145.69;100.00;70865.16;5075934;28;20207;-81
2022/07/23 01:01:38;;;;;;;10.95;7.72;;;;;;;-145.69;100.00;70857.22;5076287;28;20206;-84
2022/07/23 01:04:06;;;;;;;13.90;7.75;;;;;;;-145.69;100.00;70855.22;5075917;28;20302;-81
2022/07/23 01:06:38;;;;;;;11.85;7.57;;;;;;;-145.69;100.00;70861.19;5075580;28;20252;-81
2022/07/23 01:09:12;;;;;;;9.77;7.00;;;;;;;-145.69;100.00;70851.25;5075279;28;20206;-82
2022/07/23 01:11:39;;;;;;;11.32;7.90;;;;;;;-145.69;100.00;70843.28;5075149;28;20234;-81
2022/07/23 01:14:13;;;;;;;11.88;7.38;;;;;;;-145.69;100.00;70847.25;5075433;28;20195;-81
2022/07/23 01:16:41;;;;;;;12.13;8.23;;;;;;;-145.69;100.00;70855.22;5075321;28;20631;-81
2022/07/23 01:19:11;;;;;;;11.80;8.02;;;;;;;-145.69;100.00;70853.22;5074951;28;20202;-82
2022/07/23 01:21:40;;;;;;;12.18;7.97;;;;;;;-145.69;100.00;70855.22;5075187;28;20203;-82
2022/07/23 01:24:11;;;;;;;10.07;7.68;;;;;;;-145.69;100.00;70841.28;5075250;28;20198;-80
2022/07/23 01:26:41;;;;;;;12.27;7.80;;;;;;;-145.69;100.00;70829.34;5074015;28;20206;-82
2022/07/23 01:29:12;;;;;;;12.95;7.88;;;;;;;-145.69;100.00;70837.31;5064341;28;20199;-82
2022/07/23 01:31:43;;;;;;;10.63;7.03;;;;;;;-145.69;100.00;70837.31;5075018;28;20565;-82
2022/07/23 01:34:12;;;;;;;12.43;7.85;;;;;;;-145.69;100.00;70843.28;5074908;28;20230;-81
2022/07/23 01:36:43;;;;;;;11.27;8.10;;;;;;;-145.69;100.00;70837.31;5074720;28;20226;-82
2022/07/23 01:39:13;;;;;;;11.77;7.40;;;;;;;-145.69;100.00;70829.34;5074714;28;20223;-82
2022/07/23 01:41:44;;;;;;;11.48;7.85;;;;;;;-145.69;100.00;70817.41;5075038;28;20617;-82
2022/07/23 01:44:13;;;;;;;13.68;7.93;;;;;;;-145.69;100.00;70801.50;5074747;28;20244;-82
2022/07/23 01:46:42;;;;;;;10.45;7.50;;;;;;;-145.69;100.00;70809.47;5074723;28;20557;-82
2022/07/23 01:49:11;;;;;;;10.05;7.07;;;;;;;-145.69;100.00;70809.47;5074840;28;20297;-81
2022/07/23 01:51:59;;;;;;;10.82;6.72;;;;;;;-145.69;100.00;70795.53;5074541;28;20234;-81
2022/07/23 01:54:29;;;;;;;6.95;5.07;;;;;;;-145.69;100.00;70749.78;5074504;28;20203;-80
2022/07/23 01:56:56;;;;;;;6.80;5.35;;;;;;;-145.69;100.00;70700.03;5074001;28;20230;-82
2022/07/23 01:59:23;;;;;;;9.38;5.00;;;;;;;-145.69;94.81;70654.28;5074421;28;20199;-80
2022/07/23 02:01:52;;;;;;;8.57;4.88;;;;;;;-145.69;97.26;70656.25;5074382;28;20607;-80
2022/07/23 02:04:22;;;;;;;9.10;4.97;;;;;;;-145.69;100.00;70678.16;5074145;28;20434;-81
2022/07/23 02:06:49;;;;;;;6.22;4.95;;;;;;;-145.69;100.00;70725.91;5073489;28;20195;-80
2022/07/23 02:09:29;;;;;;;9.50;6.18;;;;;;;-145.69;100.00;70751.75;5073428;28;20199;-79
2022/07/23 02:11:59;;;;;;;9.25;6.18;;;;;;;-145.69;100.00;70773.66;5054199;28;20207;-79
2022/07/23 02:14:25;;;;;;;9.88;5.05;;;;;;;-145.69;100.00;70807.47;5054139;28;20231;-79
2022/07/23 02:16:55;;;;;;;9.85;6.47;;;;;;;-145.69;100.00;70825.38;5054221;28;20227;-79
2022/07/23 02:19:22;;;;;;;8.70;6.00;;;;;;;-145.69;100.00;70849.25;5054139;28;20222;-80
2022/07/23 02:21:48;;;;;;;9.23;6.30;;;;;;;-145.69;100.00;70859.19;5053912;28;20536;-79
2022/07/23 02:24:15;;;;;;;8.27;5.80;;;;;;;-145.69;100.00;70885.06;5053878;28;20202;-80
2022/07/23 02:26:47;;;;;;;12.15;6.28;;;;;;;-145.69;100.00;70897.00;5053855;28;20211;-80
2022/07/23 02:29:14;;;;;;;9.50;6.47;;;;;;;-145.69;100.00;70910.94;5056593;28;20199;-80
2022/07/23 02:31:40;;;;;;;10.35;6.45;;;;;;;-145.69;100.00;70914.91;5053934;28;20199;-80
2022/07/23 02:34:11;;;;;;;7.93;6.28;;;;;;;-145.69;100.00;70895.00;5053776;28;20231;-80
2022/07/23 02:36:40;;;;;;;10.52;6.57;;;;;;;-145.69;100.00;70889.03;5053735;28;20223;-80
2022/07/23 02:39:07;;;;;;;9.55;5.55;;;;;;;-145.69;100.00;70875.13;5053754;28;20242;-80
2022/07/23 02:41:34;;;;;;;7.82;5.72;;;;;;;-145.69;100.00;70861.19;5053057;28;20440;-79
2022/07/23 02:44:03;;;;;;;7.43;5.40;;;;;;;-145.69;100.00;70879.09;5053657;28;20203;-82
2022/07/23 02:46:30;;;;;;;8.18;5.88;;;;;;;-145.69;100.00;70875.13;5053650;28;20234;-80
2022/07/23 02:48:56;;;;;;;9.63;5.45;;;;;;;-145.69;100.00;70841.28;5053395;28;20294;-80
2022/07/23 02:51:27;;;;;;;14.88;5.97;;;;;;;-145.69;100.00;70825.38;5053362;28;20266;-79
2022/07/23 02:53:56;;;;;;;11.18;6.95;;;;;;;-145.69;100.00;70843.28;5053441;28;20200;-78
2022/07/23 02:56:23;;;;;;;9.25;6.50;;;;;;;-145.69;100.00;70881.09;5053443;28;20254;-79
2022/07/23 02:58:49;;;;;;;12.25;6.57;;;;;;;-145.69;100.00;70877.09;5057873;28;20198;-78
2022/07/23 03:01:20;;;;;;;10.10;6.32;;;;;;;-145.69;100.00;70875.13;5072792;28;20198;-79
2022/07/23 03:03:49;;;;;;;11.55;6.90;;;;;;;-145.69;100.00;70889.03;5073070;28;20209;-79
2022/07/23 03:06:26;;;;;;;11.02;6.57;;;;;;;-145.69;100.00;70895.00;5073400;28;20202;-79
2022/07/23 03:08:55;;;;;;;10.65;7.00;;;;;;;-145.69;100.00;70920.88;5073100;28;20682;-79
2022/07/23 03:11:22;;;;;;;10.73;7.90;;;;;;;-145.69;100.00;70932.81;5073216;28;20285;-79
2022/07/23 03:13:50;;;;;;;10.70;6.85;;;;;;;-145.69;100.00;70958.69;5073207;28;20205;-79
2022/07/23 03:16:21;;;;;;;10.60;6.93;;;;;;;-145.69;100.00;70976.59;5072951;28;20230;-79
2022/07/23 03:18:47;;;;;;;11.68;7.57;;;;;;;-145.69;100.00;70992.50;5072664;28;20587;-78
2022/07/23 03:21:16;;;;;;;10.13;6.90;;;;;;;-145.69;100.00;70974.59;5073268;28;20201;-78
2022/07/23 03:23:44;;;;;;;14.02;8.70;;;;;;;-145.69;100.00;70964.66;5072955;28;20744;-78
2022/07/23 03:26:11;;;;;;;12.02;7.70;;;;;;;-145.69;100.00;70966.63;5073056;28;20203;-77
2022/07/23 03:28:39;;;;;;;11.00;7.80;;;;;;;-145.69;100.00;70976.59;5072881;28;20585;-78
2022/07/23 03:31:06;;;;;;;14.70;8.23;;;;;;;-145.69;100.00;71000.47;5073083;28;20648;-79
2022/07/23 03:33:34;;;;;;;12.02;7.38;;;;;;;-145.69;100.00;71004.44;5073044;28;20210;-78
2022/07/23 03:36:01;;;;;;;10.88;7.32;;;;;;;-145.69;100.00;71006.44;5072623;28;20195;-79
2022/07/23 03:38:29;;;;;;;13.10;7.65;;;;;;;-145.69;100.00;70962.66;5072793;28;20578;-79
2022/07/23 03:40:57;;;;;;;12.18;7.25;;;;;;;-145.69;100.00;70968.63;5072733;28;20286;-78
2022/07/23 03:43:25;;;;;;;13.10;7.68;;;;;;;-145.69;100.00;70974.59;5072557;28;20298;-79
2022/07/23 03:45:52;;;;;;;10.43;7.72;;;;;;;-145.69;100.00;71004.44;5072958;28;20205;-79
2022/07/23 03:48:19;;;;;;;12.70;8.13;;;;;;;-145.69;100.00;71024.34;5072302;28;20205;-79
2022/07/23 03:50:47;;;;;;;13.90;9.68;;;;;;;-145.69;100.00;71036.28;5072658;28;20325;-79
2022/07/23 03:53:16;;;;;;;17.90;9.82;;;;;;;-145.69;100.00;71034.28;5072618;28;20205;-79
2022/07/23 03:55:46;;;;;;;14.45;9.40;;;;;;;-145.69;100.00;71038.25;5072465;28;20289;-79
2022/07/23 03:58:15;;;;;;;14.77;9.18;;;;;;;-145.69;100.00;71060.16;5072742;28;20261;-79
2022/07/23 04:00:42;;;;;;;14.65;10.02;;;;;;;-145.69;100.00;71066.13;5072839;28;20218;-79
2022/07/23 04:03:10;;;;;;;14.27;9.45;;;;;;;-145.69;100.00;71044.22;5072698;28;20286;-78
2022/07/23 04:05:37;;;;;;;16.00;9.15;;;;;;;-145.69;100.00;71014.38;5072377;28;20213;-79
2022/07/23 04:08:05;;;;;;;15.20;9.25;;;;;;;-145.69;100.00;70992.50;5072427;28;20238;-79
2022/07/23 04:10:40;;;;;;;16.02;9.48;;;;;;;-145.69;100.00;71004.44;5072530;28;20199;-79
2022/07/23 04:13:07;;;;;;;11.77;8.77;;;;;;;-145.69;100.00;71028.31;5072532;28;20202;-78
2022/07/23 04:15:37;;;;;;;12.30;8.48;;;;;;;-145.69;100.00;71042.25;5072306;28;20673;-79
2022/07/23 04:18:04;;;;;;;15.65;8.40;;;;;;;-145.69;100.00;71040.25;5072026;28;20240;-79
2022/07/23 04:20:30;;;;;;;10.57;7.60;;;;;;;-145.69;100.00;71056.16;5072398;28;20206;-79
2022/07/23 04:22:59;;;;;;;14.52;9.43;;;;;;;-145.69;100.00;71058.16;5072178;28;20209;-79
2022/07/23 04:25:30;;;;;;;12.43;8.85;;;;;;;-145.69;100.00;71058.16;5072368;28;20208;-79
2022/07/23 04:27:56;;;;;;;13.38;8.93;;;;;;;-145.69;100.00;71064.13;5072350;28;20199;-79
2022/07/23 04:30:23;;;;;;;14.27;9.48;;;;;;;-145.69;100.00;71062.13;5073150;28;20195;-79
2022/07/23 04:32:49;;;;;;;13.52;8.30;;;;;;;-145.69;100.00;71074.09;5076255;28;20286;-79
2022/07/23 04:35:16;;;;;;;14.80;8.55;;;;;;;-145.69;100.00;71072.09;5075927;28;20218;-79
2022/07/23 04:37:47;;;;;;;12.77;9.00;;;;;;;-145.69;100.00;71046.22;5074242;28;20262;-79
2022/07/23 04:40:14;;;;;;;13.93;9.27;;;;;;;-145.69;100.00;71052.19;5074385;28;20202;-80
2022/07/23 04:42:45;;;;;;;13.57;9.15;;;;;;;-145.69;100.00;71080.06;5076034;28;20205;-79
2022/07/23 04:45:11;;;;;;;12.35;9.30;;;;;;;-145.69;100.00;71076.06;5075441;28;20191;-79
2022/07/23 04:47:41;;;;;;;17.83;9.48;;;;;;;-145.69;100.00;71068.13;5075664;28;20202;-79
2022/07/23 04:50:12;;;;;;;15.38;10.13;;;;;;;-145.69;100.00;71064.13;5075794;28;20202;-79
2022/07/23 04:52:39;;;;;;;12.25;9.32;;;;;;;-145.69;100.00;71064.13;5075657;28;20202;-79
2022/07/23 04:55:06;;;;;;;15.95;9.75;;;;;;;-145.69;100.00;71064.13;5075673;28;20253;-79
2022/07/23 04:57:37;;;;;;;13.25;9.70;;;;;;;-145.69;100.00;71072.09;5075710;28;20333;-79
2022/07/23 05:00:12;;;;;;;14.18;9.05;;;;;;;-145.69;100.00;71074.09;5075897;28;20199;-79
2022/07/23 05:02:44;;;;;;;13.43;9.63;;;;;;;-145.69;100.00;71068.13;5075462;28;20202;-80
2022/07/23 05:05:10;;;;;;;12.20;9.15;;;;;;;-145.69;100.00;71066.13;5075669;28;20346;-79
2022/07/23 05:07:37;;;;;;;17.63;9.85;;;;;;;-145.69;100.00;71056.16;5074960;28;20566;-79
2022/07/23 05:10:08;;;;;;;13.95;9.95;;;;;;;-145.69;100.00;71050.22;5075168;28;20210;-80
2022/07/23 05:12:35;;;;;;;16.88;8.82;;;;;;;-145.69;100.00;71036.28;5075418;28;20199;-79
2022/07/23 05:15:01;;;;;;;13.85;9.00;;;;;;;-145.69;100.00;71036.28;5074985;28;20197;-79
2022/07/23 05:17:33;;;;;;;14.07;8.88;;;;;;;-145.69;100.00;71036.28;5074676;28;20233;-79
2022/07/23 05:20:00;;;;;;;12.18;8.35;;;;;;;-145.69;100.00;71044.22;5075177;28;20587;-80
2022/07/23 05:22:26;;;;;;;14.27;8.35;;;;;;;-145.69;100.00;71038.25;5075186;28;20684;-79
2022/07/23 05:24:53;;;;;;;13.43;8.27;;;;;;;-145.69;100.00;71038.25;5074920;28;20203;-79
2022/07/23 05:27:21;;;;;;;11.50;8.73;;;;;;;-145.69;100.00;71024.34;5074982;28;20203;-79
2022/07/23 05:29:48;;;;;;;13.48;8.88;;;;;;;-145.69;100.00;71026.31;5074778;28;20206;-79
2022/07/23 05:32:14;;;;;;;12.90;8.57;;;;;;;-145.69;100.00;71026.31;5075145;28;20209;-80
2022/07/23 05:34:42;;;;;;;12.25;8.48;;;;;;;-145.69;100.00;71016.38;5074559;28;20249;-80
2022/07/23 05:37:09;;;;;;;12.05;8.73;;;;;;;-145.69;100.00;71004.44;5074988;28;20233;-79
2022/07/23 05:39:35;;;;;;;13.85;9.20;;;;;;;-145.69;100.00;71012.41;5074870;28;20273;-79
2022/07/23 05:42:02;;;;;;;12.85;8.57;;;;;;;-145.69;100.00;70984.53;5074788;28;20207;-79
2022/07/23 05:44:28;;;;;;;11.70;8.35;;;;;;;-145.69;100.00;70940.78;5074537;28;20202;-79
2022/07/23 05:46:55;;;;;;;12.40;8.52;;;;;;;-145.69;100.00;70924.84;5074739;28;20229;-79
2022/07/23 05:49:35;;;;;;;10.57;7.75;;;;;;;-145.69;100.00;70875.13;5074745;28;20211;-80
2022/07/23 05:52:05;;;;;;;8.70;6.47;;;;;;;-145.69;100.00;70797.53;5074866;28;20230;-80
2022/07/23 05:54:36;;;;;;;11.73;6.60;;;;;;;-145.69;100.00;70757.72;5074203;28;20707;-80
2022/07/23 05:57:02;;;;;;;10.82;6.00;;;;;;;-145.69;100.00;70763.69;5074685;28;20321;-80
2022/07/23 05:59:32;;;;;;;8.07;5.82;;;;;;;-145.69;100.00;70711.97;5074399;28;20199;-80
2022/07/23 06:02:01;;;;;;;7.93;5.47;;;;;;;-145.69;100.00;70636.38;5073975;28;20199;-80
2022/07/23 06:04:27;;;;;;;8.02;5.53;;;;;;;-145.69;100.00;70634.38;5074179;28;20653;-80
2022/07/23 06:06:54;;;;;;;7.35;5.22;;;;;;;-145.69;100.00;70642.34;5074214;28;20242;-80
2022/07/23 06:09:27;;;;;;;9.55;5.18;;;;;;;-145.69;100.00;70662.22;5074571;28;20210;-79
2022/07/23 06:11:54;;;;;;;5.97;4.65;;;;;;;-145.69;100.00;70578.69;5073818;28;20198;-80
2022/07/23 06:14:20;;;;;;;5.57;4.70;;;;;;;-145.69;100.00;70556.78;5074103;28;20286;-80
2022/07/23 06:16:47;;;;;;;8.25;4.93;;;;;;;-145.69;100.00;70576.69;5074027;28;20205;-80
2022/07/23 06:19:13;;;;;;;5.95;4.60;;;;;;;-145.69;100.00;70538.88;5074304;28;20213;-81
2022/07/23 06:21:40;;;;;;;7.13;4.60;;;;;;;-145.69;100.00;70554.81;5073999;28;20657;-81
2022/07/23 06:24:07;;;;;;;8.52;4.50;;;;;;;-145.69;99.13;70471.25;5073966;28;20298;-81
2022/07/23 06:26:35;;;;;;;8.40;5.05;;;;;;;-145.69;98.84;70431.47;5073694;28;20207;-81
2022/07/23 06:29:01;;;;;;;7.70;4.43;;;;;;;-145.69;91.67;70361.84;5073723;28;20199;-80
2022/07/23 06:31:28;;;;;;;6.25;4.07;;;;;;;-145.69;85.22;70367.81;5073935;28;20211;-81
2022/07/23 06:33:55;;;;;;;6.22;4.15;;;;;;;-145.69;81.08;70405.59;5073770;28;20202;-79
2022/07/23 06:36:21;;;;;;;6.50;3.92;;;;;;;-145.69;82.17;70375.75;5073873;28;20199;-80
2022/07/23 06:38:48;;;;;;;7.70;4.43;;;;;;;-145.69;85.92;70353.88;5073787;28;20615;-81
2022/07/23 06:41:15;;;;;;;5.68;4.22;;;;;;;-145.69;86.27;70367.81;5058211;28;20214;-81
2022/07/23 06:43:46;;;;;;;5.60;3.72;;;;;;;-145.69;84.49;70355.88;5053470;28;20203;-81
2022/07/23 06:46:12;;;;;;;6.65;4.53;;;;;;;-145.69;83.75;70343.94;5053761;28;20570;-81
2022/07/23 06:48:40;;;;;;;7.38;4.63;;;;;;;-145.69;79.25;70262.38;5053448;28;20215;-80
2022/07/23 06:51:07;;;;;;;5.28;3.95;;;;;;;-145.69;81.04;70272.31;5053500;28;20258;-79
2022/07/23 06:53:33;;;;;;;6.20;4.32;;;;;;;-145.69;77.40;70256.41;5052488;28;20207;-80
2022/07/23 06:56:03;;;;;;;5.95;4.38;;;;;;;-145.69;78.71;70220.59;5053618;28;20204;-80
2022/07/23 06:58:31;;;;;;;6.78;3.97;;;;;;;-145.69;76.71;70212.63;5063620;28;20226;-80
2022/07/23 07:01:00;;;;;;;4.90;4.25;;;;;;;-145.69;76.53;70260.38;5073025;28;20195;-80
2022/07/23 07:03:27;;;;;;;6.13;4.47;;;;;;;-145.69;77.74;70282.25;5073284;28;20198;-80
2022/07/23 07:05:54;;;;;;;7.93;4.18;;;;;;;-145.69;79.89;70284.25;5073427;28;20297;-80
2022/07/23 07:08:20;;;;;;;6.35;4.20;;;;;;;-145.69;80.83;70296.19;5073361;28;20203;-80
2022/07/23 07:10:47;;;;;;;4.78;4.05;;;;;;;-145.69;80.03;70379.72;5073312;28;20206;-80
2022/07/23 07:13:16;;;;;;;8.90;4.40;;;;;;;-145.69;81.78;70387.69;5073175;28;20570;-79
2022/07/23 07:15:42;;;;;;;7.53;5.18;;;;;;;-145.69;80.34;70357.84;5073100;28;20715;-79
2022/07/23 07:18:10;;;;;;;6.20;4.25;;;;;;;-145.69;77.57;70339.94;5073034;28;20223;-79
2022/07/23 07:20:37;;;;;;;7.28;4.55;;;;;;;-145.69;77.92;70302.16;5073274;28;20607;-79
2022/07/23 07:23:03;;;;;;;5.80;4.50;;;;;;;-145.69;79.70;70276.28;5073071;28;20207;-80
2022/07/23 07:25:30;;;;;;;6.05;3.90;;;;;;;-145.69;72.81;70186.78;5073003;28;20228;-80
2022/07/23 07:27:56;;;;;;;7.22;4.10;;;;;;;-145.69;73.72;70182.78;5072846;28;20194;-80
2022/07/23 07:30:23;;;;;;;5.97;4.38;;;;;;;-145.69;74.56;70081.34;5072870;28;20220;-80
2022/07/23 07:32:50;;;;;;;6.03;4.00;;;;;;;-145.69;71.31;70073.38;5072253;28;20724;-80
2022/07/23 07:35:18;;;;;;;6.82;4.05;;;;;;;-145.69;73.58;70037.59;5072980;28;20554;-80
2022/07/23 07:37:44;;;;;;;6.00;4.00;;;;;;;-145.69;67.98;70049.50;5072888;28;20234;-80
2022/07/23 07:40:11;;;;;;;8.50;3.95;;;;;;;-145.69;69.89;70055.47;5072855;28;20293;-80
2022/07/23 07:42:45;;;;;;;5.28;4.03;;;;;;;-145.69;70.34;70083.34;5072877;28;20221;-81
2022/07/23 07:45:11;;;;;;;6.30;3.80;;;;;;;-145.69;73.70;70162.91;5073060;28;20210;-80
2022/07/23 07:47:38;;;;;;;4.43;3.80;;;;;;;-145.69;70.38;70143.00;5072152;28;20207;-78
2022/07/23 07:50:05;;;;;;;5.10;3.92;;;;;;;-145.69;72.52;70129.09;5072763;28;20203;-79
2022/07/23 07:52:33;;;;;;;5.00;4.07;;;;;;;-145.69;71.71;70236.50;5072829;28;20199;-78
2022/07/23 07:54:59;;;;;;;6.20;4.25;;;;;;;-145.69;77.86;70288.22;5072533;28;20199;-78
2022/07/23 07:57:26;;;;;;;4.82;3.90;;;;;;;-145.69;74.28;70204.69;5072088;28;20656;-78
2022/07/23 07:59:52;;;;;;;5.78;4.28;;;;;;;-145.69;76.71;70288.22;5071954;28;20222;-78
2022/07/23 08:02:19;;;;;;;7.55;4.60;;;;;;;-145.69;79.39;70324.03;5072788;28;20202;-78
2022/07/23 08:04:45;;;;;;;6.60;4.85;;;;;;;-145.69;79.93;70324.03;5073488;28;20191;-76
2022/07/23 08:07:12;;;;;;;7.28;5.00;;;;;;;-145.69;76.19;70286.25;5076282;28;20247;-76
2022/07/23 08:09:40;;;;;;;8.93;5.88;;;;;;;-145.69;78.60;70312.09;5076601;28;20206;-76
2022/07/23 08:12:12;;;;;;;8.98;5.53;;;;;;;-145.69;79.98;70335.97;5058619;28;20214;-76
2022/07/23 08:14:38;;;;;;;6.78;5.07;;;;;;;-145.69;77.72;70290.22;5056631;28;20582;-77
2022/07/23 08:17:08;;;;;;;8.00;5.65;;;;;;;-145.69;77.57;70320.06;5056094;28;20202;-77
2022/07/23 08:19:37;;;;;;;7.70;5.40;;;;;;;-145.69;75.67;70272.31;5056316;28;20321;-77
2022/07/23 08:22:04;;;;;;;8.63;5.55;;;;;;;-145.69;74.17;70242.47;5056247;28;20199;-77
2022/07/23 08:24:30;;;;;;;9.27;5.25;;;;;;;-145.69;72.87;70250.44;5055997;28;20206;-78
2022/07/23 08:26:58;;;;;;;8.45;5.20;;;;;;;-145.69;75.69;70294.19;5056348;28;20543;-78
2022/07/23 08:29:28;;;;;;;7.68;5.30;;;;;;;-145.69;78.88;70371.78;5055990;28;20203;-76
2022/07/23 08:31:54;;;;;;;8.20;5.75;;;;;;;-145.69;77.71;70345.91;5058573;28;20196;-76
2022/07/23 08:34:20;;;;;;;7.10;5.32;;;;;;;-145.69;77.84;70314.09;5058593;28;20199;-77
2022/07/23 08:36:47;;;;;;;11.82;5.00;;;;;;;-145.69;75.62;70236.50;5075041;28;20764;-76
2022/07/23 08:39:14;;;;;;;6.97;4.85;;;;;;;-145.69;73.34;70196.72;5076057;28;20242;-77
2022/07/23 08:41:41;;;;;;;8.98;5.20;;;;;;;-145.69;68.97;70109.19;5076107;28;20195;-76
2022/07/23 08:44:09;;;;;;;6.45;5.35;;;;;;;-145.69;69.88;70085.31;5075752;28;20257;-77
2022/07/23 08:46:38;;;;;;;7.25;5.53;;;;;;;-145.69;70.66;70145.00;5075725;28;20195;-77
2022/07/23 08:49:05;;;;;;;7.38;5.13;;;;;;;-145.69;69.44;70125.09;5075778;28;20198;-77
2022/07/23 08:51:32;;;;;;;7.35;5.03;;;;;;;-145.69;69.93;70101.25;5074606;28;20226;-77
2022/07/23 08:53:59;;;;;;;9.27;4.97;;;;;;;-145.69;67.41;70061.44;5075658;28;20221;-77
2022/07/23 08:56:26;;;;;;;6.22;4.88;;;;;;;-145.69;69.35;70035.59;5075827;28;20199;-77
2022/07/23 08:58:54;;;;;;;5.90;4.88;;;;;;;-145.69;67.03;70057.47;5075674;28;20236;-77
2022/07/23 09:01:25;;;;;;;5.97;4.47;;;;;;;-145.69;67.87;70065.44;5075027;28;20195;-77
2022/07/23 09:03:52;;;;;;;5.95;4.32;;;;;;;-145.69;71.02;70101.25;5075405;28;20202;-77
2022/07/23 09:06:18;;;;;;;6.25;4.55;;;;;;;-145.69;73.82;70150.97;5075612;28;20209;-77
2022/07/23 09:08:46;;;;;;;6.20;4.88;;;;;;;-145.69;73.32;70164.88;5075577;28;20206;-77
2022/07/23 09:11:16;;;;;;;6.50;4.93;;;;;;;-145.69;71.05;70111.19;5075125;28;20205;-77
2022/07/23 09:13:46;;;;;;;7.60;5.35;;;;;;;-145.69;73.33;70137.03;5075550;28;20293;-77
2022/07/23 09:16:17;;;;;;;6.88;5.10;;;;;;;-145.69;70.90;70033.59;5074611;28;20207;-77
2022/07/23 09:18:47;;;;;;;6.30;5.13;;;;;;;-145.69;67.68;69977.91;5075005;28;20242;-77
2022/07/23 09:21:28;;;;;;;7.45;5.25;;;;;;;-145.69;68.40;70057.47;5075554;28;20293;-78
2022/07/23 09:23:57;;;;;;;7.03;4.72;;;;;;;-145.69;70.31;70077.38;5075133;28;20656;-78
2022/07/23 09:26:32;;;;;;;7.88;5.30;;;;;;;-145.69;67.42;70083.34;5075036;28;20202;-77
2022/07/23 09:29:10;;;;;;;8.18;5.20;;;;;;;-145.69;65.95;70019.69;5075021;28;20297;-77
2022/07/23 09:31:48;;;;;;;7.45;5.80;;;;;;;-145.69;62.12;69946.09;5075373;28;20210;-76
2022/07/23 09:34:20;;;;;;;7.63;5.20;;;;;;;-145.69;65.48;69942.09;5074916;28;20210;-77
2022/07/23 09:36:47;;;;;;;8.48;5.32;;;;;;;-145.69;59.59;69910.28;5075107;28;20653;-76
2022/07/23 09:39:17;;;;;;;10.85;5.78;;;;;;;-145.69;58.83;69854.59;5074798;28;20245;-76
2022/07/23 09:41:45;;;;;;;6.82;5.30;;;;;;;-145.69;62.89;69862.53;5074925;28;20206;-77
2022/07/23 09:44:15;;;;;;;9.75;5.40;;;;;;;-145.69;58.38;69902.31;5074731;28;20556;-75
2022/07/23 09:46:43;;;;;;;8.07;5.10;;;;;;;-145.69;58.77;69995.81;5074794;28;20203;-77
2022/07/23 09:49:16;;;;;;;8.13;5.20;;;;;;;-145.69;60.36;70051.50;5074748;28;20207;-77
2022/07/23 09:52:02;;;;;;;6.18;5.15;;;;;;;-145.69;56.60;70049.50;5074538;28;20230;-76
2022/07/23 09:54:34;;;;;;;6.20;5.05;;;;;;;-145.69;57.40;70033.59;5054732;28;20578;-77
2022/07/23 09:57:04;;;;;;;8.43;5.47;;;;;;;-145.69;56.25;70049.50;5054291;28;20195;-77
2022/07/23 09:59:35;;;;;;;6.97;5.10;;;;;;;-145.69;57.38;70097.25;5054310;28;20230;-77
2022/07/23 10:02:02;;;;;;;11.65;5.40;;;;;;;-145.69;60.66;70133.06;5054312;28;20199;-76
2022/07/23 10:04:30;;;;;;;8.82;5.13;;;;;;;-145.69;62.05;70093.28;5054145;28;20192;-77
2022/07/23 10:06:58;;;;;;;8.35;5.60;;;;;;;-145.69;60.83;70059.47;5054664;28;20203;-76
2022/07/23 10:09:28;;;;;;;6.20;5.30;;;;;;;-145.69;58.39;70017.69;5054433;28;20569;-77
2022/07/23 10:12:04;;;;;;;8.02;5.15;;;;;;;-145.69;57.91;69962.00;5053978;28;20196;-77
2022/07/23 10:14:33;;;;;;;6.97;5.07;;;;;;;-145.69;55.11;69985.88;5054351;28;20195;-77
2022/07/23 10:17:01;;;;;;;9.40;5.80;;;;;;;-145.69;56.21;70053.50;5054252;28;20289;-76
2022/07/23 10:19:28;;;;;;;7.60;5.43;;;;;;;-145.69;53.90;70009.72;5053947;28;20277;-76
2022/07/23 10:22:01;;;;;;;7.20;5.32;;;;;;;-145.69;55.30;70005.75;5054261;28;20199;-76
2022/07/23 10:24:48;;;;;;;7.25;5.38;;;;;;;-145.69;56.00;70033.59;5054224;28;20199;-77
2022/07/23 10:27:51;;;;;;;9.77;5.53;;;;;;;-145.69;55.09;70005.75;5054525;28;20662;-75
2022/07/23 10:30:23;;;;;;;6.82;4.95;;;;;;;-145.69;54.71;70003.75;4988825;28;20210;-76
2022/07/23 10:33:00;;;;;;;8.98;5.28;;;;;;;-145.69;55.29;69993.81;4992411;28;20201;-77
2022/07/23 10:35:32;;;;;;;6.90;5.22;;;;;;;-145.69;56.13;69985.88;5024940;28;20650;-77
2022/07/23 10:38:07;;;;;;;6.55;5.18;;;;;;;-145.69;57.65;70009.72;5034488;28;20203;-77
2022/07/23 10:40:35;;;;;;;9.50;5.55;;;;;;;-145.69;57.34;69914.25;5033696;28;20199;-77
2022/07/23 10:43:02;;;;;;;8.35;5.30;;;;;;;-145.69;53.73;69846.63;5049502;28;20658;-77
2022/07/23 10:45:31;;;;;;;8.63;5.18;;;;;;;-145.69;50.33;69792.91;5053665;28;20295;-77
2022/07/23 10:48:14;;;;;;;7.38;5.35;;;;;;;-145.69;53.61;69906.28;5053473;28;20195;-77
2022/07/23 10:51:12;;;;;;;10.43;5.65;;;;;;;-145.69;58.08;69948.06;5090210;27;20911;-76
2022/07/23 10:53:54;;;;;;;7.00;5.38;;;;;;;-145.69;55.42;69997.78;5090490;28;20273;-76
2022/07/23 10:57:04;;;;;;;10.38;5.57;;;;;;;-145.69;56.04;69942.09;5090303;28;20201;-76
2022/07/23 10:59:31;;;;;;;9.98;6.32;;;;;;;-145.69;55.79;69993.81;5090223;28;20213;-76
2022/07/23 11:02:21;;;;;;;9.25;5.75;;;;;;;-145.69;55.15;70003.75;5090343;28;20198;-76
2022/07/23 11:04:53;;;;;;;7.55;5.68;;;;;;;-145.69;56.85;69997.78;5089747;28;20542;-76
2022/07/23 11:07:21;;;;;;;9.07;5.68;;;;;;;-145.69;53.98;69977.91;5090226;28;20198;-76
2022/07/23 11:09:47;;;;;;;11.55;5.75;;;;;;;-145.69;59.29;70017.69;5090025;28;20317;-77
2022/07/23 11:12:33;;;;;;;7.55;5.45;;;;;;;-145.69;59.07;70061.44;5090098;28;20194;-76
2022/07/23 11:15:01;;;;;;;8.48;5.50;;;;;;;-145.69;58.53;70093.28;5089906;28;20289;-76
2022/07/23 11:17:28;;;;;;;7.93;5.75;;;;;;;-145.69;58.26;70045.53;5089444;28;20206;-76
2022/07/23 11:20:18;;;;;;;8.10;5.28;;;;;;;-145.69;54.51;69946.09;5090160;28;20197;-76